createdAt,value
2022-10-17T09:40:29.004Z,16.66
2022-10-17T09:43:00.465Z,15.39
2022-10-17T09:45:34.085Z,14.40
2022-10-17T09:48:11.873Z,14.58
2022-10-17T09:50:44.707Z,14.19
2022-10-17T09:53:19.066Z,13.42
2022-10-17T09:55:56.663Z,12.84
2022-10-17T09:58:42.483Z,12.78
2022-10-17T10:01:24.391Z,12.02
2022-10-17T10:04:12.428Z,12.58
2022-10-17T10:07:10.177Z,11.75
2022-10-17T10:09:41.585Z,10.88
2022-10-17T10:12:26.857Z,11.11
2022-10-17T10:14:58.414Z,10.27
2022-10-17T10:17:46.561Z,10.87
2022-10-17T10:20:32.888Z,11.09
2022-10-17T10:23:14.823Z,10.10
2022-10-17T10:25:54.749Z,9.89
2022-10-17T10:28:31.031Z,10.05
2022-10-17T10:31:09.289Z,9.96
2022-10-17T10:33:48.086Z,9.48
2022-10-17T10:36:23.389Z,9.22
2022-10-17T10:38:56.271Z,10.28
2022-10-17T10:41:28.130Z,9.81
2022-10-17T10:44:03.620Z,9.79
2022-10-17T10:46:33.256Z,9.81
2022-10-17T10:49:03.878Z,9.75
2022-10-17T10:51:37.987Z,9.89
2022-10-17T10:54:13.667Z,9.43
2022-10-17T10:56:48.798Z,10.03
2022-10-17T10:59:30.742Z,9.29
2022-10-17T11:02:13.838Z,9.23
2022-10-17T11:04:57.075Z,9.57
2022-10-17T11:07:32.781Z,10.13
2022-10-17T11:10:14.343Z,10.60
2022-10-17T11:12:52.879Z,9.99
2022-10-17T11:15:31.767Z,8.95
2022-10-17T11:18:10.095Z,9.27
2022-10-17T11:20:54.066Z,8.94
2022-10-17T11:23:30.650Z,8.76
2022-10-17T11:26:09.140Z,10.00
2022-10-17T11:28:44.586Z,10.15
2022-10-17T11:31:22.423Z,9.76
2022-10-17T11:34:06.230Z,9.31
2022-10-17T11:36:47.776Z,10.77
2022-10-17T11:39:48.902Z,10.10
2022-10-17T11:42:25.055Z,10.14
2022-10-17T11:45:05.951Z,9.25
2022-10-17T11:48:05.396Z,9.58
2022-10-17T11:53:50.863Z,9.71
2022-10-17T11:56:40.409Z,9.63
2022-10-17T11:59:43.534Z,9.84
2022-10-17T12:02:32.862Z,9.50
2022-10-17T12:05:22.026Z,9.26
2022-10-17T12:08:02.388Z,9.81
2022-10-17T12:11:01.003Z,9.83
2022-10-17T12:13:52.974Z,9.58
2022-10-17T12:16:50.778Z,10.64
2022-10-17T12:19:34.883Z,10.60
2022-10-17T12:22:26.901Z,10.55
2022-10-17T12:24:59.506Z,10.95
2022-10-17T12:27:43.836Z,10.95
2022-10-17T12:30:22.498Z,10.89
2022-10-17T12:33:07.473Z,10.70
2022-10-17T12:35:43.263Z,10.14
2022-10-17T12:38:32.364Z,10.01
2022-10-17T12:41:08.506Z,11.17
2022-10-17T12:43:55.783Z,10.95
2022-10-17T12:46:56.828Z,10.40
2022-10-17T12:49:54.424Z,10.25
2022-10-17T12:55:27.910Z,11.42
2022-10-17T12:58:00.647Z,11.62
2022-10-17T13:18:41.220Z,17.65
2022-10-17T13:21:19.468Z,18.26
2022-10-17T13:23:51.524Z,19.04
2022-10-17T13:26:23.271Z,19.94
2022-10-17T13:29:06.979Z,20.46
2022-10-17T13:31:44.257Z,21.07
2022-10-17T13:34:21.214Z,21.30
2022-10-17T13:36:55.425Z,21.16
2022-10-17T13:39:54.329Z,21.57
2022-10-17T13:42:29.471Z,21.60
2022-10-17T13:45:00.842Z,21.94
2022-10-17T13:47:34.418Z,22.24
2022-10-17T13:50:39.644Z,22.58
2022-10-17T13:53:22.558Z,22.95
2022-10-17T13:56:16.178Z,23.36
2022-10-17T13:58:52.348Z,23.26
2022-10-17T14:01:26.050Z,23.75
2022-10-17T14:04:08.460Z,23.95
2022-10-17T14:06:47.592Z,24.16
2022-10-17T14:09:27.148Z,24.38
2022-10-17T14:12:03.580Z,24.42
2022-10-17T14:14:51.652Z,24.70
2022-10-17T14:17:27.439Z,24.49
2022-10-17T14:20:26.650Z,24.74
2022-10-17T14:23:22.378Z,25.13
2022-10-17T14:25:48.905Z,25.12
2022-10-17T14:28:18.774Z,24.42
2022-10-17T14:30:56.639Z,25.38
2022-10-17T14:33:31.067Z,25.85
2022-10-17T14:36:10.072Z,26.27
2022-10-17T14:38:55.936Z,26.38
2022-10-17T14:41:42.277Z,26.56
2022-10-17T14:44:21.903Z,26.60
2022-10-17T14:47:00.247Z,27.31
2022-10-17T14:49:38.037Z,27.31
2022-10-17T14:52:25.793Z,27.08
2022-10-17T14:54:58.285Z,27.40
2022-10-17T14:57:31.367Z,27.60
2022-10-17T15:00:05.156Z,27.83
2022-10-17T15:02:35.249Z,27.87
2022-10-17T15:05:06.500Z,28.13
2022-10-17T15:07:39.573Z,28.25
2022-10-17T15:10:26.644Z,28.11
2022-10-17T15:13:26.172Z,28.48
2022-10-17T15:15:54.273Z,28.33
2022-10-17T15:18:33.136Z,28.76
2022-10-17T15:21:11.263Z,28.35
2022-10-17T15:23:47.642Z,28.56
2022-10-17T15:26:19.586Z,27.63
2022-10-17T15:28:53.547Z,28.35
2022-10-17T15:31:31.547Z,29.05
2022-10-17T15:34:01.422Z,29.19
2022-10-17T15:36:34.862Z,29.33
2022-10-17T15:39:07.126Z,29.18
2022-10-17T15:41:39.295Z,29.79
2022-10-17T15:44:09.358Z,29.61
2022-10-17T15:46:44.571Z,29.82
2022-10-17T15:49:20.215Z,30.04
2022-10-17T15:51:55.086Z,29.88
2022-10-17T15:54:25.297Z,29.99
2022-10-17T15:56:58.315Z,30.40
2022-10-17T15:59:35.165Z,30.38
2022-10-17T16:02:05.679Z,30.37
2022-10-17T16:04:38.556Z,30.50
2022-10-17T16:07:10.719Z,30.46
2022-10-17T16:09:44.407Z,30.58
2022-10-17T16:12:24.901Z,30.87
2022-10-17T16:14:56.438Z,30.81
2022-10-17T16:17:33.499Z,30.78
2022-10-17T16:20:03.794Z,31.14
2022-10-17T16:22:37.630Z,31.65
2022-10-17T16:25:10.982Z,31.39
2022-10-17T16:27:43.213Z,31.64
2022-10-17T16:30:14.911Z,31.48
2022-10-17T16:32:45.440Z,31.28
2022-10-17T16:35:20.290Z,31.63
2022-10-17T16:37:50.575Z,31.46
2022-10-17T16:40:25.246Z,31.62
2022-10-17T16:42:56.474Z,31.62
2022-10-17T16:45:30.032Z,31.78
2022-10-17T16:48:00.085Z,31.77
2022-10-17T16:50:31.599Z,31.50
2022-10-17T16:53:04.388Z,31.71
2022-10-17T16:55:40.612Z,31.80
2022-10-17T16:58:13.766Z,31.62
2022-10-17T17:00:47.195Z,31.52
2022-10-17T17:03:18.879Z,31.60
2022-10-17T17:05:52.691Z,31.49
2022-10-17T17:08:22.415Z,31.54
2022-10-17T17:10:56.684Z,31.58
2022-10-17T17:13:32.150Z,31.54
2022-10-17T17:16:09.713Z,31.73
2022-10-17T17:18:42.720Z,31.50
2022-10-17T17:21:14.386Z,31.56
2022-10-17T17:23:45.450Z,31.65
2022-10-17T17:26:17.917Z,31.90
2022-10-17T17:28:59.330Z,31.97
2022-10-17T17:31:35.778Z,31.73
2022-10-17T17:34:13.155Z,32.06
2022-10-17T17:36:49.683Z,32.05
2022-10-17T17:39:21.377Z,32.30
2022-10-17T17:41:53.302Z,32.03
2022-10-17T17:44:24.815Z,32.40
2022-10-17T17:46:54.994Z,32.06
2022-10-17T17:49:26.840Z,32.40
2022-10-17T17:51:57.165Z,32.47
2022-10-17T17:54:27.218Z,32.47
2022-10-17T17:56:57.433Z,32.32
2022-10-17T17:59:31.040Z,31.37
2022-10-17T18:02:03.219Z,31.88
2022-10-17T18:04:34.472Z,32.61
2022-10-17T18:07:04.583Z,32.61
2022-10-17T18:09:34.450Z,32.30
2022-10-17T18:12:04.560Z,32.65
2022-10-17T18:14:36.486Z,32.63
2022-10-17T18:17:06.760Z,32.77
2022-10-17T18:19:36.589Z,32.49
2022-10-17T18:22:06.671Z,32.59
2022-10-17T18:24:36.466Z,32.41
2022-10-17T18:27:06.673Z,32.42
2022-10-17T18:29:37.539Z,31.59
2022-10-17T18:32:07.727Z,32.33
2022-10-17T18:34:36.993Z,31.69
2022-10-17T18:37:07.547Z,32.19
2022-10-17T18:39:37.732Z,32.57
2022-10-17T18:42:11.677Z,32.83
2022-10-17T18:44:43.926Z,32.69
2022-10-17T18:47:14.444Z,32.63
2022-10-17T18:49:44.559Z,32.60
2022-10-17T18:52:14.957Z,32.75
2022-10-17T18:54:45.146Z,32.67
2022-10-17T18:57:15.238Z,32.72
2022-10-17T18:59:46.955Z,32.92
2022-10-17T19:02:17.277Z,33.08
2022-10-17T19:09:44.783Z,32.84
2022-10-17T19:12:45.614Z,32.93
2022-10-17T19:15:16.965Z,33.32
2022-10-17T19:17:47.028Z,33.17
2022-10-17T19:20:17.447Z,33.46
2022-10-17T19:22:49.039Z,33.58
2022-10-17T19:25:20.381Z,33.65
2022-10-17T19:27:50.422Z,33.48
2022-10-17T19:30:21.982Z,33.45
2022-10-17T19:32:52.968Z,33.65
2022-10-17T19:35:22.999Z,33.73
2022-10-17T19:37:53.501Z,33.95
2022-10-17T19:43:56.759Z,33.91
2022-10-17T19:46:28.441Z,33.09
2022-10-17T19:48:58.588Z,33.77
2022-10-17T19:51:28.927Z,33.33
2022-10-17T19:54:01.943Z,34.07
2022-10-17T19:56:37.468Z,34.63
2022-10-17T19:59:08.408Z,34.96
2022-10-17T20:01:41.081Z,35.35
2022-10-17T20:04:12.686Z,35.26
2022-10-17T20:06:43.510Z,35.83
2022-10-17T20:09:16.882Z,35.77
2022-10-17T20:11:47.262Z,35.80
2022-10-17T20:14:17.208Z,36.16
2022-10-17T20:16:50.597Z,37.03
2022-10-17T20:19:20.923Z,37.16
2022-10-17T20:21:50.561Z,37.08
2022-10-17T20:24:20.033Z,36.05
2022-10-17T20:26:49.713Z,36.56
2022-10-17T20:29:20.046Z,35.89
2022-10-17T20:31:51.883Z,36.96
2022-10-17T20:34:23.745Z,37.17
2022-10-17T20:36:56.053Z,36.63
2022-10-17T20:39:26.479Z,36.59
2022-10-17T20:41:56.526Z,36.54
2022-10-17T20:44:26.691Z,36.57
2022-10-17T20:47:02.303Z,36.16
2022-10-17T20:49:33.976Z,36.06
2022-10-17T20:52:04.548Z,36.07
2022-10-17T20:54:35.786Z,36.04
2022-10-17T20:57:05.895Z,36.22
2022-10-17T20:59:36.442Z,36.13
2022-10-17T21:02:08.279Z,36.62
2022-10-17T21:04:46.453Z,36.61
2022-10-17T21:07:17.622Z,36.84
2022-10-17T21:09:47.821Z,36.62
2022-10-17T21:12:25.964Z,35.95
2022-10-17T21:15:07.808Z,36.38
2022-10-17T21:17:39.000Z,37.55
2022-10-17T21:20:10.001Z,36.97
2022-10-17T21:22:39.713Z,36.63
2022-10-17T21:25:10.677Z,36.30
2022-10-17T21:27:41.488Z,36.28
2022-10-17T21:30:11.591Z,35.40
2022-10-17T21:32:57.771Z,35.71
2022-10-17T21:35:28.289Z,35.86
2022-10-17T21:37:57.902Z,35.82
2022-10-17T21:40:27.547Z,35.18
2022-10-17T21:42:57.263Z,35.61
2022-10-17T21:45:28.306Z,35.53
2022-10-17T21:48:12.660Z,35.74
2022-10-17T21:50:43.348Z,35.82
2022-10-17T21:53:12.998Z,35.77
2022-10-17T21:55:42.530Z,34.99
2022-10-17T21:58:12.230Z,35.24
2022-10-17T22:00:42.172Z,35.48
2022-10-17T22:03:15.483Z,35.66
2022-10-17T22:05:46.744Z,35.70
2022-10-17T22:08:16.372Z,35.69
2022-10-17T22:10:46.488Z,35.81
2022-10-17T22:13:16.243Z,35.83
2022-10-17T22:15:46.166Z,35.93
2022-10-17T22:18:17.587Z,36.09
2022-10-17T22:20:47.545Z,36.14
2022-10-17T22:23:17.209Z,36.35
2022-10-17T22:25:54.118Z,35.29
2022-10-17T22:28:24.084Z,36.48
2022-10-17T22:30:54.249Z,36.53
2022-10-17T22:33:25.372Z,37.03
2022-10-17T22:35:55.469Z,37.04
2022-10-17T22:38:25.076Z,36.71
2022-10-17T22:40:54.424Z,35.92
2022-10-17T22:43:24.192Z,36.31
2022-10-17T22:45:55.216Z,36.79
2022-10-17T22:48:27.517Z,37.06
2022-10-17T22:50:58.711Z,37.04
2022-10-17T22:53:30.221Z,36.97
2022-10-17T22:56:02.237Z,36.95
2022-10-17T22:58:34.435Z,37.36
2022-10-17T23:01:05.741Z,37.26
2022-10-17T23:22:56.841Z,36.78
2022-10-17T23:25:27.184Z,37.01
2022-10-17T23:27:56.551Z,36.51
2022-10-17T23:30:26.814Z,36.88
2022-10-17T23:32:56.530Z,37.02
2022-10-17T23:35:26.028Z,36.33
2022-10-17T23:37:57.317Z,37.00
2022-10-17T23:40:27.438Z,36.95
2022-10-17T23:42:57.251Z,37.24
2022-10-17T23:45:27.447Z,37.23
2022-10-17T23:47:57.149Z,37.35
2022-10-17T23:50:26.719Z,36.58
2022-10-17T23:52:57.759Z,37.44
2022-10-17T23:55:27.748Z,37.28
2022-10-17T23:58:16.014Z,37.28
